Time;durP1;ratioP1;P1;durP2;ratioP2;P2;SDS_P1;SDS_P2;PMS_P1;PMS_P2;Temp;Humidity;BMP_temperature;BMP_pressure;BME280_temperature;BME280_humidity;BME280_pressure;Samples;Min_cycle;Max_cycle;Signal;HPM_P1;HPM_P2
2021/03/21 00:02:16;;;;;;;17.07;15.53;;;;;;;3.40;86.67;100966.97;5021972;28;20253;-74
2021/03/21 00:04:42;;;;;;;16.47;14.83;;;;;;;3.45;87.18;100965.34;5029048;28;20647;-74
2021/03/21 00:07:07;;;;;;;16.87;15.47;;;;;;;3.40;87.79;100953.19;5021507;28;20238;-74
2021/03/21 00:09:34;;;;;;;16.40;15.00;;;;;;;3.38;87.84;100948.00;5029326;28;20233;-75
2021/03/21 00:12:00;;;;;;;16.80;15.40;;;;;;;3.37;88.60;100944.56;5021905;28;20204;-75
2021/03/21 00:14:26;;;;;;;17.17;15.77;;;;;;;3.40;88.68;100951.47;5019021;28;20258;-74
2021/03/21 00:16:52;;;;;;;14.00;12.90;;;;;;;3.50;88.10;100955.97;5011481;28;20202;-74
2021/03/21 00:19:18;;;;;;;12.33;11.33;;;;;;;3.56;88.66;100953.47;5020700;28;20586;-75
2021/03/21 00:21:44;;;;;;;9.93;9.13;;;;;;;3.71;87.59;100940.00;5016386;28;20206;-74
2021/03/21 00:24:10;;;;;;;8.73;8.10;;;;;;;3.75;87.73;100931.44;5017722;28;20207;-74
2021/03/21 00:26:36;;;;;;;6.83;6.33;;;;;;;3.81;87.21;100922.09;5021034;28;20230;-75
2021/03/21 00:29:04;;;;;;;8.63;7.93;;;;;;;3.85;87.21;100923.88;5026936;28;20207;-74
2021/03/21 00:31:30;;;;;;;10.43;9.47;;;;;;;3.80;87.40;100920.34;5022375;28;20229;-74
2021/03/21 00:33:56;;;;;;;7.43;6.83;;;;;;;3.85;86.86;100922.16;5025489;28;20281;-74
2021/03/21 00:36:22;;;;;;;5.77;5.37;;;;;;;3.85;87.64;100911.81;5015516;28;20233;-74
2021/03/21 00:38:51;;;;;;;6.00;5.60;;;;;;;3.90;86.95;100893.81;5025381;28;20206;-75
2021/03/21 00:41:19;;;;;;;5.20;4.80;;;;;;;3.92;86.40;100889.53;5016606;28;20728;-74
2021/03/21 00:43:45;;;;;;;4.80;4.50;;;;;;;3.95;86.03;100898.19;5012945;28;20206;-74
2021/03/21 00:46:13;;;;;;;3.60;3.40;;;;;;;4.01;85.35;100894.84;5019132;28;20226;-74
2021/03/21 00:48:41;;;;;;;3.17;2.97;;;;;;;4.03;85.39;100892.28;5024588;28;20207;-74
2021/03/21 00:51:09;;;;;;;3.57;3.37;;;;;;;4.02;85.83;100882.78;5023323;28;20230;-74
2021/03/21 00:53:37;;;;;;;3.90;3.60;;;;;;;4.01;85.28;100881.06;5024238;28;20202;-74
2021/03/21 00:56:03;;;;;;;3.60;3.33;;;;;;;3.99;85.18;100868.13;5023712;28;20206;-75
2021/03/21 00:58:29;;;;;;;3.00;2.80;;;;;;;4.04;85.26;100861.28;5024276;28;20195;-74
2021/03/21 01:00:58;;;;;;;3.43;3.23;;;;;;;4.03;84.83;100861.31;5022951;28;20323;-74
2021/03/21 01:03:26;;;;;;;3.00;2.80;;;;;;;4.05;85.10;100864.78;5024015;28;20211;-75
2021/03/21 01:05:55;;;;;;;3.57;3.37;;;;;;;4.07;85.08;100856.19;5023153;28;20256;-74
2021/03/21 01:08:23;;;;;;;3.00;2.80;;;;;;;4.07;84.86;100853.59;5024205;28;20209;-74
2021/03/21 01:10:53;;;;;;;3.60;3.30;;;;;;;4.04;85.76;100847.53;5016103;28;20282;-75
2021/03/21 01:13:19;;;;;;;3.97;3.67;;;;;;;3.98;86.11;100845.72;5023450;28;20588;-75
2021/03/21 01:15:45;;;;;;;4.83;4.37;;;;;;;3.95;86.69;100835.34;5008355;28;20210;-75
2021/03/21 01:18:16;;;;;;;4.07;3.77;;;;;;;3.94;86.71;100839.66;5012293;28;20657;-74
2021/03/21 01:20:43;;;;;;;4.30;3.90;;;;;;;3.93;87.68;100837.06;5015641;28;20223;-75
2021/03/21 01:23:09;;;;;;;3.67;3.43;;;;;;;3.95;87.63;100835.34;5023578;28;20207;-74
2021/03/21 01:25:35;;;;;;;3.90;3.60;;;;;;;3.94;87.86;100833.59;5023079;28;20219;-73
2021/03/21 01:28:01;;;;;;;4.20;3.90;;;;;;;3.91;88.22;100826.69;5023649;28;20206;-75
2021/03/21 01:30:27;;;;;;;4.20;3.80;;;;;;;3.94;88.29;100823.28;5022784;28;20717;-74
2021/03/21 01:32:54;;;;;;;4.50;4.20;;;;;;;3.88;89.29;100818.88;5023440;28;20198;-75
2021/03/21 01:35:20;;;;;;;4.20;3.90;;;;;;;3.77;89.64;100811.00;5015856;28;20605;-74
2021/03/21 01:37:47;;;;;;;4.73;4.40;;;;;;;3.71;90.86;100816.06;5023168;28;20195;-74
2021/03/21 01:40:16;;;;;;;5.13;4.73;;;;;;;3.66;91.43;100806.50;5029224;28;20252;-75
2021/03/21 01:42:45;;;;;;;5.70;5.20;;;;;;;3.65;91.98;100797.91;5033039;28;20206;-74
2021/03/21 01:45:38;;;;;;;5.70;5.20;;;;;;;3.62;92.39;100794.41;5026283;28;20203;-75
2021/03/21 01:48:06;;;;;;;7.03;5.67;;;;;;;3.61;92.13;100790.97;5013883;28;20250;-75
2021/03/21 01:50:39;;;;;;;6.17;5.63;;;;;;;3.61;92.68;100778.06;5012912;28;20231;-74
2021/03/21 01:53:07;;;;;;;6.10;5.70;;;;;;;3.66;92.64;100773.81;5023322;28;20316;-74
2021/03/21 01:55:33;;;;;;;6.00;5.50;;;;;;;3.70;92.28;100777.31;5022915;28;20210;-75
2021/03/21 01:57:59;;;;;;;5.10;4.70;;;;;;;3.68;91.97;100768.69;5023177;28;20198;-75
2021/03/21 02:00:26;;;;;;;4.83;4.43;;;;;;;3.72;91.64;100765.28;5022437;28;20712;-73
2021/03/21 02:02:52;;;;;;;4.07;3.77;;;;;;;3.69;92.14;100750.63;5022922;28;20198;-74
2021/03/21 02:05:19;;;;;;;4.73;4.43;;;;;;;3.69;91.86;100753.22;5022484;28;20257;-75
2021/03/21 02:08:03;;;;;;;4.27;3.97;;;;;;;3.69;92.04;100749.78;5023145;28;20242;-74
2021/03/21 02:10:40;;;;;;;4.37;4.03;;;;;;;3.72;91.95;100734.31;5015591;28;20227;-75
2021/03/21 02:13:10;;;;;;;4.93;4.53;;;;;;;3.71;92.14;100742.94;5022833;28;20213;-75
2021/03/21 02:15:43;;;;;;;5.40;4.97;;;;;;;3.71;92.14;100736.03;5013914;28;20210;-75
2021/03/21 02:18:19;;;;;;;5.40;5.00;;;;;;;3.76;92.26;100721.47;5023101;28;20241;-75
2021/03/21 02:21:11;;;;;;;5.37;4.97;;;;;;;3.82;91.81;100715.50;5015315;28;20758;-75
2021/03/21 02:23:59;;;;;;;5.37;4.97;;;;;;;3.84;91.75;100710.38;5022719;28;20694;-74
2021/03/21 02:26:43;;;;;;;5.50;5.10;;;;;;;3.88;91.55;100704.41;5021507;28;20283;-73
2021/03/21 02:29:21;;;;;;;5.30;4.97;;;;;;;3.96;91.00;100710.53;5026492;28;20256;-74
2021/03/21 02:31:51;;;;;;;6.07;5.57;;;;;;;4.00;91.01;100708.84;5012753;28;20353;-74
2021/03/21 02:34:23;;;;;;;5.07;4.67;;;;;;;3.94;90.92;100697.63;5027442;28;20195;-73
2021/03/21 02:36:54;;;;;;;5.60;5.20;;;;;;;3.89;91.33;100695.81;5012578;28;20196;-74
2021/03/21 02:39:26;;;;;;;5.90;5.40;;;;;;;3.94;91.41;100692.44;5027459;28;20208;-73
2021/03/21 02:42:01;;;;;;;6.17;5.67;;;;;;;3.98;91.48;100683.91;5018931;28;20666;-74
2021/03/21 02:44:34;;;;;;;5.17;4.83;;;;;;;4.00;90.82;100688.19;5018354;28;20268;-75
2021/03/21 02:47:04;;;;;;;5.20;4.90;;;;;;;4.01;91.01;100675.31;5013510;28;20728;-74
2021/03/21 02:49:34;;;;;;;5.57;5.07;;;;;;;3.92;91.49;100676.03;5026179;28;20716;-74
2021/03/21 02:52:05;;;;;;;6.17;5.13;;;;;;;4.01;90.84;100670.13;5013621;28;20226;-75
2021/03/21 02:54:34;;;;;;;5.40;5.00;;;;;;;4.04;90.97;100664.13;5026734;28;20203;-74
2021/03/21 02:57:07;;;;;;;5.13;4.73;;;;;;;4.09;90.87;100665.06;5013468;28;20249;-75
2021/03/21 02:59:37;;;;;;;5.60;5.20;;;;;;;4.06;91.16;100658.13;5029147;28;20226;-75
2021/03/21 03:02:08;;;;;;;6.13;5.63;;;;;;;4.06;90.84;100660.69;5017671;28;20221;-75
2021/03/21 03:04:37;;;;;;;6.40;5.90;;;;;;;4.09;91.34;100670.22;5029055;28;20198;-74
2021/03/21 03:07:09;;;;;;;5.97;5.47;;;;;;;4.08;91.59;100668.47;5017308;28;20294;-74
2021/03/21 03:09:41;;;;;;;6.97;6.47;;;;;;;4.10;91.51;100666.78;5030462;28;20276;-73
2021/03/21 03:12:13;;;;;;;6.50;6.00;;;;;;;4.01;91.56;100664.97;5022844;28;20208;-74
2021/03/21 03:14:42;;;;;;;7.00;6.47;;;;;;;4.00;91.54;100657.19;5021400;28;20212;-76
2021/03/21 03:17:16;;;;;;;6.60;6.10;;;;;;;4.00;91.84;100662.38;5022761;28;20701;-75
2021/03/21 03:19:56;;;;;;;7.03;6.50;;;;;;;3.97;92.26;100655.47;5029979;28;20234;-74
2021/03/21 03:22:25;;;;;;;7.40;6.80;;;;;;;4.00;92.17;100646.88;5023271;28;20214;-75
2021/03/21 03:25:06;;;;;;;7.40;6.80;;;;;;;4.04;92.39;100653.78;5028871;28;20238;-75
2021/03/21 03:27:36;;;;;;;8.27;7.57;;;;;;;4.02;92.54;100645.16;5024262;28;20739;-75
2021/03/21 03:30:09;;;;;;;8.97;8.27;;;;;;;4.00;92.79;100631.38;5027170;28;20217;-74
2021/03/21 03:32:34;;;;;;;7.73;7.13;;;;;;;3.95;92.68;100629.59;5024387;28;20680;-75
2021/03/21 03:35:02;;;;;;;8.47;7.77;;;;;;;3.99;93.19;100633.09;5022866;28;20208;-74
2021/03/21 03:37:28;;;;;;;8.10;7.47;;;;;;;3.98;93.66;100626.19;5021053;28;20203;-75
2021/03/21 03:39:54;;;;;;;9.17;8.47;;;;;;;4.04;93.69;100633.13;5023204;28;20223;-74
2021/03/21 03:42:35;;;;;;;9.70;8.90;;;;;;;4.02;93.54;100629.66;5013629;28;20198;-74
2021/03/21 03:45:09;;;;;;;9.30;8.60;;;;;;;4.01;93.26;100623.66;5021108;28;20208;-74
2021/03/21 03:47:49;;;;;;;8.70;8.00;;;;;;;4.04;93.42;100615.06;5022215;28;20267;-75
2021/03/21 03:50:21;;;;;;;8.37;7.67;;;;;;;4.04;93.12;100617.63;5013265;28;20233;-75
2021/03/21 03:53:03;;;;;;;8.23;7.53;;;;;;;4.01;93.28;100615.91;5014110;28;20302;-74
2021/03/21 03:55:36;;;;;;;7.73;7.13;;;;;;;4.08;92.78;100606.47;5007726;28;20661;-74
2021/03/21 03:58:05;;;;;;;7.07;6.47;;;;;;;4.11;92.73;100604.81;5025265;28;20190;-74
2021/03/21 04:00:36;;;;;;;7.07;6.37;;;;;;;4.17;92.70;100597.13;5017478;28;20585;-75
2021/03/21 04:03:15;;;;;;;6.60;6.10;;;;;;;4.13;92.69;100597.94;5024916;28;20688;-73
2021/03/21 04:05:47;;;;;;;7.03;6.47;;;;;;;4.16;92.43;100590.22;5024835;28;20276;-75
2021/03/21 04:08:20;;;;;;;6.97;6.40;;;;;;;4.16;92.63;100585.06;5025207;28;20590;-74
2021/03/21 04:10:50;;;;;;;6.90;6.30;;;;;;;4.19;92.76;100586.81;5024240;28;20227;-74
2021/03/21 04:13:21;;;;;;;7.10;6.60;;;;;;;4.22;92.77;100583.38;5024676;28;20203;-74
2021/03/21 04:15:51;;;;;;;6.93;6.33;;;;;;;4.24;92.80;100581.66;5009087;28;20278;-74
2021/03/21 04:18:23;;;;;;;6.53;6.03;;;;;;;4.20;93.03;100588.50;5025242;28;20199;-75
2021/03/21 04:20:54;;;;;;;7.27;6.57;;;;;;;4.26;93.15;100595.47;5024172;28;20245;-75
2021/03/21 04:23:26;;;;;;;6.53;5.93;;;;;;;4.28;93.25;100586.91;5024720;28;20227;-75
2021/03/21 04:25:56;;;;;;;6.27;5.77;;;;;;;4.29;93.10;100583.44;5024138;28;20203;-74
2021/03/21 04:28:26;;;;;;;6.93;6.40;;;;;;;4.27;93.45;100574.81;5024978;28;20207;-74
2021/03/21 04:30:56;;;;;;;6.60;6.00;;;;;;;4.26;93.15;100573.09;5023775;28;20220;-75
2021/03/21 04:33:26;;;;;;;7.43;6.73;;;;;;;4.27;94.02;100555.88;5024325;28;20670;-74
2021/03/21 04:35:56;;;;;;;6.50;5.90;;;;;;;4.28;93.64;100568.81;5017102;28;20661;-74
2021/03/21 04:38:29;;;;;;;6.40;5.87;;;;;;;4.31;93.75;100574.00;5024925;28;20209;-74
2021/03/21 04:40:56;;;;;;;7.40;6.80;;;;;;;4.35;93.84;100580.06;5034788;22;20933;-77
2021/03/21 04:43:26;;;;;;;6.57;6.07;;;;;;;4.37;93.17;100574.03;5009670;28;20216;-76
2021/03/21 04:45:56;;;;;;;4.43;4.03;;;;;;;4.42;93.40;100571.50;5021620;28;20226;-78
2021/03/21 04:48:24;;;;;;;4.50;4.13;;;;;;;4.45;93.07;100571.53;5010981;28;20207;-78
2021/03/21 04:50:57;;;;;;;4.60;4.20;;;;;;;4.53;92.99;100574.16;5012885;28;20218;-77
2021/03/21 04:53:34;;;;;;;4.50;4.20;;;;;;;4.60;92.29;100569.91;5013616;28;20255;-77
2021/03/21 04:56:03;;;;;;;3.90;3.60;;;;;;;4.62;92.25;100563.91;5014289;28;20217;-77
2021/03/21 04:58:41;;;;;;;3.83;3.53;;;;;;;4.67;91.34;100569.97;5014533;28;20605;-77
2021/03/21 05:01:13;;;;;;;3.10;2.90;;;;;;;4.70;91.46;100566.56;5024557;28;20236;-77
2021/03/21 05:03:43;;;;;;;4.57;4.17;;;;;;;4.68;91.77;100551.03;5022767;28;20203;-77
2021/03/21 05:06:15;;;;;;;4.27;3.90;;;;;;;4.69;91.86;100552.75;5013892;28;20665;-78
2021/03/21 05:08:49;;;;;;;4.00;3.70;;;;;;;4.62;92.26;100540.66;5013448;28;20209;-77
2021/03/21 05:11:17;;;;;;;4.77;4.07;;;;;;;4.64;92.05;100519.94;5003818;28;20224;-78
2021/03/21 05:13:49;;;;;;;2.77;2.57;;;;;;;4.73;91.00;100530.34;5012482;28;20252;-78
2021/03/21 05:16:24;;;;;;;2.60;2.40;;;;;;;4.74;90.89;100514.00;5020935;28;20219;-78
2021/03/21 05:18:53;;;;;;;2.20;2.00;;;;;;;4.82;90.34;100519.22;5013528;28;20199;-79
2021/03/21 05:21:26;;;;;;;2.60;2.40;;;;;;;4.81;90.01;100540.75;5011870;28;20227;-77
2021/03/21 05:23:58;;;;;;;1.80;1.70;;;;;;;4.85;89.32;100532.16;5023791;28;20613;-78
2021/03/21 05:26:30;;;;;;;1.60;1.50;;;;;;;4.86;88.82;100515.81;5025320;28;20232;-77
2021/03/21 05:29:15;;;;;;;1.50;1.40;;;;;;;4.88;87.95;100534.78;5031874;28;20680;-79
2021/03/21 05:31:42;;;;;;;2.63;1.77;;;;;;;4.91;87.64;100534.78;5020493;28;20230;-77
2021/03/21 05:34:09;;;;;;;1.67;1.57;;;;;;;4.91;86.46;100540.81;5023629;28;20200;-78
2021/03/21 05:37:00;;;;;;;2.33;1.37;;;;;;;4.91;86.19;100550.28;5025347;28;20209;-77
2021/03/21 05:39:37;;;;;;;1.70;1.60;;;;;;;4.86;86.73;100546.84;5023574;28;20204;-78
2021/03/21 05:42:36;;;;;;;1.60;1.33;;;;;;;4.89;85.23;100547.69;5026701;28;20455;-77
2021/03/21 05:45:36;;;;;;;2.20;2.00;;;;;;;4.90;85.60;100544.25;5023783;28;20553;-77
2021/03/21 05:48:24;;;;;;;3.70;1.90;;;;;;;4.91;85.01;100542.53;5021035;28;20224;-76
2021/03/21 05:51:17;;;;;;;2.57;1.43;;;;;;;4.86;83.73;100526.16;4998080;28;20238;-79
2021/03/21 05:54:09;;;;;;;2.90;1.40;;;;;;;4.88;82.54;100521.84;5025966;28;20196;-77
2021/03/21 05:56:55;;;;;;;3.50;1.70;;;;;;;4.91;82.24;100529.59;5028622;28;20209;-77
2021/03/21 05:59:40;;;;;;;1.13;1.03;;;;;;;4.89;81.10;100528.72;5034743;28;20203;-78
2021/03/21 06:02:15;;;;;;;3.53;1.53;;;;;;;4.91;80.12;100530.47;5022285;28;20604;-78
2021/03/21 06:05:14;;;;;;;2.17;0.90;;;;;;;4.95;79.06;100539.09;5025337;28;20234;-77
2021/03/21 06:08:10;;;;;;;2.20;0.97;;;;;;;4.98;78.97;100544.31;5011661;28;20707;-77
2021/03/21 06:11:12;;;;;;;2.67;1.13;;;;;;;5.01;78.33;100543.47;5021570;28;20204;-77
2021/03/21 06:13:52;;;;;;;1.33;0.97;;;;;;;5.01;79.26;100533.09;5020359;28;20317;-77
2021/03/21 06:16:49;;;;;;;1.67;0.87;;;;;;;4.98;80.88;100544.31;5012085;28;20219;-78
2021/03/21 06:19:34;;;;;;;1.50;0.70;;;;;;;4.83;82.40;100550.25;5017285;28;20209;-77
2021/03/21 06:22:22;;;;;;;5.20;2.03;;;;;;;4.84;82.99;100536.47;5002605;28;20261;-77
2021/03/21 06:25:01;;;;;;;2.17;1.20;;;;;;;4.88;83.66;100538.22;5025305;28;20200;-78
2021/03/21 06:28:11;;;;;;;1.80;0.97;;;;;;;4.88;84.19;100537.38;5024493;28;20227;-77
2021/03/21 06:30:59;;;;;;;1.33;1.23;;;;;;;4.71;86.50;100542.41;5023617;28;20212;-77
2021/03/21 06:33:26;;;;;;;3.70;1.77;;;;;;;4.71;87.43;100542.41;5020111;28;20215;-78
2021/03/21 06:36:07;;;;;;;2.63;2.17;;;;;;;4.67;88.10;100540.66;5030873;28;20200;-78
2021/03/21 06:38:49;;;;;;;2.47;2.00;;;;;;;4.64;88.72;100541.53;5024524;28;20291;-76
2021/03/21 06:41:46;;;;;;;3.00;1.87;;;;;;;4.73;87.79;100538.13;5026606;28;20237;-78
2021/03/21 06:44:33;;;;;;;4.67;2.57;;;;;;;4.75;87.88;100547.59;5007181;28;20207;-78
2021/03/21 06:47:22;;;;;;;2.33;1.90;;;;;;;4.79;87.81;100548.50;5009398;28;20235;-78
2021/03/21 06:50:03;;;;;;;2.43;2.23;;;;;;;4.80;88.48;100554.53;5016248;28;20209;-77
2021/03/21 06:52:42;;;;;;;3.33;3.03;;;;;;;4.71;89.47;100563.97;5020692;28;20220;-77
2021/03/21 06:55:12;;;;;;;4.33;2.97;;;;;;;4.74;89.61;100574.34;5031410;28;20205;-78
2021/03/21 06:58:11;;;;;;;3.33;2.70;;;;;;;4.76;89.65;100571.75;5031359;28;20215;-77
2021/03/21 07:00:53;;;;;;;5.40;3.07;;;;;;;4.73;88.90;100582.06;5030397;28;20199;-76
2021/03/21 07:04:04;;;;;;;3.57;3.10;;;;;;;4.68;89.27;100574.28;5026408;28;20673;-77
2021/03/21 07:07:17;;;;;;;4.03;2.50;;;;;;;4.71;89.25;100587.22;5010076;28;20226;-77
2021/03/21 07:10:24;;;;;;;4.80;2.63;;;;;;;4.74;88.71;100589.00;5016187;28;20206;-77
2021/03/21 07:13:26;;;;;;;3.07;2.47;;;;;;;4.81;88.87;100593.34;5017194;28;20222;-76
2021/03/21 07:16:40;;;;;;;3.17;2.67;;;;;;;4.73;88.12;100584.66;5010359;28;20198;-76
2021/03/21 07:19:29;;;;;;;5.77;2.90;;;;;;;4.80;87.57;100588.13;4956716;28;20206;-77
2021/03/21 07:22:37;;;;;;;4.50;2.97;;;;;;;4.85;86.93;100587.31;4953459;28;20226;-77
2021/03/21 07:25:39;;;;;;;7.97;3.13;;;;;;;4.93;85.94;100598.59;5009592;28;20206;-77
2021/03/21 07:28:21;;;;;;;6.57;3.17;;;;;;;4.95;85.69;100602.03;5017838;28;20237;-77
2021/03/21 07:30:55;;;;;;;6.27;2.20;;;;;;;4.86;85.24;100606.31;5007342;28;20230;-77
2021/03/21 07:33:29;;;;;;;5.73;2.80;;;;;;;4.81;84.03;100620.91;5016542;28;20209;-77
2021/03/21 07:36:05;;;;;;;6.03;3.17;;;;;;;4.81;84.28;100605.41;5020213;28;20687;-78
2021/03/21 07:38:52;;;;;;;9.13;2.70;;;;;;;4.85;83.11;100617.50;5011510;28;20206;-78
2021/03/21 07:41:25;;;;;;;6.70;3.77;;;;;;;4.83;83.41;100614.91;5007257;28;20231;-76
2021/03/21 07:44:14;;;;;;;4.63;2.57;;;;;;;4.89;82.37;100617.53;5015822;28;20230;-77
2021/03/21 07:46:50;;;;;;;7.40;2.57;;;;;;;4.87;81.47;100620.97;5013105;28;20224;-78
2021/03/21 07:49:42;;;;;;;12.97;3.00;;;;;;;5.01;81.75;100627.09;5018182;28;20201;-78
2021/03/21 07:52:35;;;;;;;12.23;2.90;;;;;;;5.05;81.30;100622.81;5014593;28;20229;-77
2021/03/21 07:55:06;;;;;;;6.03;2.63;;;;;;;5.08;80.97;100628.03;5011867;28;20199;-77
2021/03/21 07:57:42;;;;;;;12.10;2.80;;;;;;;5.09;79.95;100614.22;5015546;28;20197;-77
2021/03/21 08:00:12;;;;;;;7.60;2.60;;;;;;;5.10;79.45;100626.31;5010031;28;20200;-76
2021/03/21 08:02:38;;;;;;;9.27;2.37;;;;;;;5.08;79.73;100625.44;5016345;28;20767;-76
2021/03/21 08:05:08;;;;;;;9.03;2.67;;;;;;;5.10;79.62;100624.56;5011941;28;20205;-77
2021/03/21 08:07:38;;;;;;;10.17;3.10;;;;;;;5.03;79.09;100616.75;5016016;28;20234;-76
2021/03/21 08:10:19;;;;;;;13.87;4.03;;;;;;;4.98;76.12;100624.50;5009504;28;20204;-76
2021/03/21 08:12:53;;;;;;;15.33;3.63;;;;;;;4.84;76.66;100614.06;5015412;28;20220;-76
2021/03/21 08:15:22;;;;;;;15.97;4.10;;;;;;;4.74;76.21;100622.59;5010075;28;20227;-77
2021/03/21 08:17:53;;;;;;;15.40;3.60;;;;;;;4.68;75.45;100626.00;5017489;28;20200;-77
2021/03/21 08:20:22;;;;;;;12.67;3.50;;;;;;;4.75;75.04;100626.91;5031612;28;20211;-77
2021/03/21 08:22:50;;;;;;;14.90;4.03;;;;;;;4.81;73.76;100620.91;5023734;28;20302;-78
2021/03/21 08:25:23;;;;;;;17.47;3.70;;;;;;;4.81;75.22;100632.13;5030402;28;20207;-78
2021/03/21 08:27:51;;;;;;;23.20;5.30;;;;;;;4.88;75.23;100626.16;5026997;28;20350;-77
2021/03/21 08:30:19;;;;;;;12.27;3.77;;;;;;;4.75;75.36;100606.22;5017587;28;20213;-77
2021/03/21 08:32:55;;;;;;;10.50;2.83;;;;;;;4.70;75.52;100606.19;5020645;28;20226;-78
2021/03/21 08:35:24;;;;;;;20.17;4.73;;;;;;;4.79;75.12;100607.97;5029870;28;20249;-75
2021/03/21 08:37:52;;;;;;;15.17;4.13;;;;;;;4.67;75.55;100603.56;5022116;28;20585;-75
2021/03/21 08:40:23;;;;;;;26.33;5.70;;;;;;;4.64;75.71;100600.97;5029312;28;20663;-78
2021/03/21 08:42:51;;;;;;;21.50;4.77;;;;;;;4.71;74.79;100597.56;5017743;28;20586;-77
2021/03/21 08:45:30;;;;;;;18.73;4.40;;;;;;;4.71;75.00;100600.16;5030204;28;20282;-78
2021/03/21 08:48:17;;;;;;;25.87;4.77;;;;;;;4.73;74.64;100587.25;5021515;28;20607;-77
2021/03/21 08:50:45;;;;;;;17.83;4.50;;;;;;;4.78;74.06;100595.91;5030652;28;20209;-77
2021/03/21 08:53:37;;;;;;;17.87;4.47;;;;;;;4.74;72.90;100581.22;5020640;28;20227;-76
2021/03/21 08:56:19;;;;;;;29.20;5.03;;;;;;;4.83;73.93;100589.03;4995661;28;20705;-76
2021/03/21 08:58:47;;;;;;;19.07;4.20;;;;;;;4.82;73.15;100592.50;5016767;28;20205;-77
2021/03/21 09:01:17;;;;;;;21.00;4.77;;;;;;;4.80;73.32;100598.47;5017991;28;20234;-77
2021/03/21 09:03:44;;;;;;;18.70;4.13;;;;;;;4.80;72.97;100601.06;5011288;28;20210;-76
2021/03/21 09:06:29;;;;;;;23.60;6.47;;;;;;;4.79;73.13;100607.97;5013179;28;20815;-77
2021/03/21 09:09:14;;;;;;;25.17;5.80;;;;;;;4.83;72.95;100617.47;5001558;28;20212;-78
2021/03/21 09:11:40;;;;;;;29.10;5.37;;;;;;;4.80;72.60;100614.00;5011649;28;20222;-77
2021/03/21 09:14:06;;;;;;;25.23;5.83;;;;;;;4.80;72.88;100606.25;5011719;28;20207;-77
2021/03/21 09:16:52;;;;;;;23.67;4.63;;;;;;;4.83;72.96;100603.69;5024038;28;20256;-77
2021/03/21 09:19:24;;;;;;;24.60;5.40;;;;;;;4.84;73.25;100614.06;5023841;28;20200;-76
2021/03/21 09:21:50;;;;;;;24.23;5.23;;;;;;;4.83;72.50;100611.47;5014869;28;20605;-77
2021/03/21 09:24:23;;;;;;;22.97;4.53;;;;;;;4.89;72.61;100621.84;5023393;28;20205;-77
2021/03/21 09:26:51;;;;;;;24.13;6.13;;;;;;;4.95;72.32;100637.41;5024530;28;20235;-77
2021/03/21 09:29:22;;;;;;;22.73;5.40;;;;;;;4.92;72.17;100630.50;5032769;28;20199;-77
2021/03/21 09:31:49;;;;;;;27.53;5.53;;;;;;;4.97;73.04;100627.94;5018891;28;20227;-78
2021/03/21 09:34:21;;;;;;;22.33;4.87;;;;;;;5.01;72.37;100627.09;5009386;28;20205;-76
2021/03/21 09:36:50;;;;;;;19.37;5.03;;;;;;;4.93;71.21;100636.53;5007610;28;20211;-77
2021/03/21 09:39:21;;;;;;;21.37;4.60;;;;;;;5.01;72.02;100632.25;5005156;28;20563;-75
2021/03/21 09:41:48;;;;;;;24.00;5.57;;;;;;;5.15;72.14;100630.66;5006921;28;20249;-78
2021/03/21 09:44:33;;;;;;;16.67;4.70;;;;;;;5.20;70.94;100637.59;5024674;28;20285;-76
2021/03/21 09:47:09;;;;;;;19.03;6.00;;;;;;;5.21;71.24;100636.72;5008698;28;20927;-76
2021/03/21 09:49:46;;;;;;;24.60;5.70;;;;;;;5.10;71.58;100647.00;5013723;28;20864;-76
2021/03/21 09:52:14;;;;;;;23.53;6.10;;;;;;;5.09;72.01;100640.94;5004771;28;20226;-77
2021/03/21 09:54:47;;;;;;;16.30;4.20;;;;;;;5.10;71.47;100653.03;5022433;28;20210;-77
2021/03/21 09:57:36;;;;;;;25.63;4.63;;;;;;;5.18;71.36;100643.59;5012536;28;20210;-77
2021/03/21 10:00:06;;;;;;;21.10;5.37;;;;;;;5.18;71.27;100642.75;5006767;28;20671;-77
2021/03/21 10:02:40;;;;;;;27.08;6.05;;;;;;;5.14;70.42;100647.03;5007940;28;20445;-77
2021/03/21 10:05:11;;;;;;;30.83;5.17;;;;;;;5.25;71.51;100647.13;5006281;28;20205;-76
2021/03/21 10:07:45;;;;;;;27.20;5.80;;;;;;;5.21;70.78;100642.75;5009938;28;20234;-76
2021/03/21 10:10:23;;;;;;;26.17;5.83;;;;;;;5.29;71.29;100648.84;5003902;28;20207;-77
2021/03/21 10:12:50;;;;;;;33.37;5.90;;;;;;;5.41;72.04;100650.66;5006266;28;20228;-77
2021/03/21 10:15:20;;;;;;;23.23;4.77;;;;;;;5.37;70.91;100643.69;5004129;28;20198;-76
2021/03/21 10:17:55;;;;;;;22.63;5.13;;;;;;;5.40;70.85;100648.06;5012393;28;20669;-76
2021/03/21 10:21:15;;;;;;;18.23;4.70;;;;;;;5.38;71.05;100658.38;5027660;28;20266;-77
2021/03/21 10:24:29;;;;;;;20.83;6.80;;;;;;;5.49;71.21;100651.56;5021815;28;20232;-76
2021/03/21 10:27:37;;;;;;;23.13;5.30;;;;;;;5.47;70.62;100665.31;5023066;28;20235;-77
2021/03/21 10:30:09;;;;;;;25.90;6.00;;;;;;;5.57;70.67;100668.00;5025277;28;20227;-77
2021/03/21 10:32:37;;;;;;;36.97;7.33;;;;;;;5.57;70.85;100678.34;5022070;28;20263;-76
2021/03/21 10:35:12;;;;;;;20.00;5.40;;;;;;;5.53;70.06;100675.72;5025495;28;20197;-76
2021/03/21 10:37:54;;;;;;;23.27;6.50;;;;;;;5.43;69.71;100666.16;5022088;28;20697;-77
2021/03/21 10:40:44;;;;;;;28.00;6.03;;;;;;;5.43;71.11;100669.66;5028818;28;20209;-77
2021/03/21 10:45:53;;;;;;;21.97;5.27;;;;;;;5.43;69.82;100650.63;5001168;28;21726;-75
2021/03/21 10:48:51;;;;;;;32.40;7.20;;;;;;;5.42;71.21;100657.53;5013086;28;20930;-73
2021/03/21 10:51:18;;;;;;;36.13;6.10;;;;;;;5.53;71.28;100652.41;4998784;28;20252;-72
2021/03/21 10:54:06;;;;;;;24.63;6.10;;;;;;;5.63;71.47;100663.69;5008390;28;20229;-72
2021/03/21 10:56:32;;;;;;;21.33;6.67;;;;;;;5.58;70.97;100667.13;5004341;28;20740;-71
2021/03/21 10:59:25;;;;;;;21.77;6.67;;;;;;;5.53;71.38;100662.78;5013272;28;20209;-73
2021/03/21 11:02:22;;;;;;;25.20;5.13;;;;;;;5.53;71.10;100663.66;5016998;28;20197;-72
2021/03/21 11:05:01;;;;;;;18.87;5.70;;;;;;;5.64;71.02;100673.19;5014268;28;20229;-72
2021/03/21 11:07:27;;;;;;;29.80;6.03;;;;;;;5.55;70.50;100664.53;5022833;28;20265;-72
2021/03/21 11:09:57;;;;;;;20.13;5.00;;;;;;;5.50;70.25;100665.34;5011731;28;20209;-74
2021/03/21 11:12:35;;;;;;;24.97;6.83;;;;;;;5.54;70.06;100667.97;5009471;28;20267;-73
2021/03/21 11:15:19;;;;;;;33.33;6.53;;;;;;;5.59;70.78;100673.19;5004851;28;20235;-74
2021/03/21 11:17:46;;;;;;;28.60;7.10;;;;;;;5.62;70.13;100670.59;5010978;28;20205;-74
2021/03/21 11:20:24;;;;;;;20.33;5.87;;;;;;;5.67;70.71;100671.50;5010293;28;20206;-73
2021/03/21 11:22:50;;;;;;;19.77;5.17;;;;;;;5.77;70.10;100675.84;5002992;28;20193;-72
2021/03/21 11:25:28;;;;;;;28.57;5.70;;;;;;;5.72;70.19;100668.91;5015907;28;20236;-72
2021/03/21 11:27:54;;;;;;;25.13;5.60;;;;;;;5.71;69.68;100668.06;5008843;28;20584;-73
2021/03/21 11:30:27;;;;;;;27.77;6.80;;;;;;;5.78;69.98;100674.97;5011199;28;20205;-74
2021/03/21 11:32:55;;;;;;;20.93;6.03;;;;;;;5.76;71.24;100679.28;5016923;28;20205;-72
2021/03/21 11:35:25;;;;;;;34.70;7.17;;;;;;;5.65;70.03;100674.91;5001525;28;20224;-72
2021/03/21 11:37:52;;;;;;;34.00;6.00;;;;;;;5.69;69.92;100669.78;5005449;28;20195;-72
2021/03/21 11:40:24;;;;;;;24.40;7.10;;;;;;;5.64;69.96;100668.03;5002217;28;20214;-75
2021/03/21 11:43:06;;;;;;;23.43;6.07;;;;;;;5.65;70.02;100673.22;5015557;28;20202;-73
2021/03/21 11:45:36;;;;;;;31.10;6.90;;;;;;;5.71;70.24;100674.97;5004423;28;20445;-73
2021/03/21 11:48:14;;;;;;;22.97;5.63;;;;;;;5.77;69.53;100675.00;5006889;28;20304;-73
2021/03/21 11:50:42;;;;;;;22.20;5.30;;;;;;;5.81;68.53;100662.91;5009327;28;20201;-71
2021/03/21 11:53:15;;;;;;;22.20;5.53;;;;;;;5.87;68.80;100662.94;5009278;28;20207;-72
2021/03/21 11:55:43;;;;;;;19.57;5.50;;;;;;;5.97;68.99;100664.75;5012485;28;20203;-72
2021/03/21 11:58:19;;;;;;;29.00;5.93;;;;;;;5.96;68.47;100663.00;5011611;28;20203;-73
2021/03/21 12:00:54;;;;;;;22.80;5.80;;;;;;;6.00;68.91;100662.16;5009597;28;20264;-73
2021/03/21 12:03:23;;;;;;;28.10;5.10;;;;;;;6.02;69.24;100656.97;5009125;28;20205;-71
2021/03/21 12:05:59;;;;;;;27.60;6.87;;;;;;;6.01;68.99;100658.72;5010630;28;20213;-74
2021/03/21 12:08:31;;;;;;;24.13;6.27;;;;;;;5.99;70.04;100665.63;5011703;28;20255;-73
2021/03/21 12:10:57;;;;;;;33.63;7.33;;;;;;;6.10;69.70;100668.22;5006931;28;20666;-76